Etusivu
METAR-TAF:

METAR-TAF

Lentoasemat :

Sogndal, Norja

Leveyspiiri: 61-09N, Pituuspiiri: 007-08E, korkeus merenpinnasta: 49 m

Tämänhetkinen sää

Tämä raportti tehtiin 17 minuuttia sitten, kello 04.20 UTC
Tuuli 5 kn idästä/koillisesta, vaihdellen pohjoisen ja idän välillä
Lämpötila 7°C
Kosteus 53%
Ilmanpaine 1019 hPa
Näkyvyys 10 km tai enemmän
ei pilviä alle 1500 m:ssä eikä cumulonimbus-pilviä

METAR: ENSG 230420Z 06005KT 010V100 CAVOK 07/M02 Q1019 RMK WIND 3806FT 09011KT

Aika: 06:37 (04:37 UTC)


TAF: puuttuu

Säähavainnot ja -ennusteet yli 4000 lentoasemalta (METAR- ja TAF-raportit).

Käytössä olevat sääasemat on merkitty karttaan keltaisilla ja punaisilla pisteillä.

Aseta hiiri pisteen päälle nähdäksesi sääaseman nimen.

Klikkaa sitten nähdäksesi säähavainnot ja -ennusteet.

Kartan vaihtaminen: klikkaa mustalla rastilla varustettuja vihreitä pisteitä, niin voit zoomata sisään; viivalla varustettua vihreää pistettä, niin voit zoomata ulos tai vihreitä nuolia, niin pääset viereisille kartoille.


METAR-TAF: